Time;durP1;ratioP1;P1;durP2;ratioP2;P2;SDS_P1;SDS_P2;PMS_P1;PMS_P2;Temp;Humidity;BMP_temperature;BMP_pressure;BME280_temperature;BME280_humidity;BME280_pressure;Samples;Min_cycle;Max_cycle;Signal;HPM_P1;HPM_P2
2022/04/25 00:03:42;;;;;;;7.73;6.93;;;10.60;94.00;;;12.36;63.99;97655.06;4942333;28;114320;-74
2022/04/25 01:00:25;;;;;;;10.23;8.37;;;11.90;94.60;;;12.40;64.13;97673.75;5947381;23;98418;-77
2022/04/25 03:57:09;;;;;;;9.73;8.73;;;11.30;94.10;;;11.83;63.12;97766.94;6049370;23;99364;31
2022/04/25 03:58:17;;;;;;;10.20;9.20;;;9.10;93.60;;;11.82;63.33;97763.38;4901680;28;123422;-77
2022/04/25 04:07:46;;;;;;;8.67;7.80;;;11.20;94.00;;;11.79;62.96;97774.31;5507784;23;98106;-77
2022/04/25 04:13:55;;;;;;;9.97;8.37;;;12.50;94.60;;;11.79;63.11;97794.47;4942074;28;124783;-82
2022/04/25 04:20:04;;;;;;;8.87;7.83;;;11.10;94.00;;;11.81;63.31;97792.19;4942789;28;114974;-86
2022/04/25 04:22:32;;;;;;;9.40;8.40;;;11.10;94.10;;;11.82;63.12;97798.50;4941843;28;123911;-84
2022/04/25 04:28:41;;;;;;;11.23;10.07;;;11.30;94.00;;;11.80;63.26;97807.19;4941731;28;116195;-87
2022/04/25 04:34:50;;;;;;;10.27;8.67;;;10.40;93.60;;;11.79;63.13;97813.84;4941940;28;125060;-81
2022/04/25 04:40:58;;;;;;;10.20;9.20;;;11.20;94.00;;;11.81;63.21;97819.06;4942055;28;114827;-80
2022/04/25 04:44:03;;;;;;;10.40;9.30;;;9.90;94.10;;;11.84;63.25;97821.94;4942012;28;114821;-89
2022/04/25 04:46:51;;;;;;;10.33;8.50;;;11.30;94.00;;;11.86;63.16;97821.63;4938032;28;124624;-77
2022/04/25 04:49:17;;;;;;;10.20;9.13;;;9.10;93.60;;;11.87;62.94;97826.00;4938662;28;123618;-86
2022/04/25 04:51:45;;;;;;;9.93;8.93;;;12.90;94.90;;;11.88;63.35;97836.75;4938556;28;114998;-87
2022/04/25 04:58:13;;;;;;;13.20;9.17;;;11.30;94.00;;;11.86;63.02;97841.00;4941070;28;125003;-88
2022/04/25 05:00:44;;;;;;;13.27;11.43;;;11.30;94.00;;;11.83;62.91;97845.22;4938372;28;123843;-88
2022/04/25 05:03:15;;;;;;;12.73;11.37;;;11.40;94.00;;;11.76;63.10;97844.97;4936273;28;114032;-84
2022/04/25 05:10:06;;;;;;;14.57;12.90;;;11.20;93.90;;;11.59;63.53;97854.28;4878210;28;125186;-88
2022/04/25 05:13:11;;;;;;;15.03;13.10;;;11.20;93.90;;;11.54;63.46;97853.72;4874440;29;123682;-87
2022/04/25 05:15:38;;;;;;;12.90;10.90;;;11.10;93.90;;;11.53;63.79;97855.69;4877136;29;115182;-87
2022/04/25 05:18:06;;;;;;;14.33;11.57;;;11.10;94.00;;;11.58;63.65;97851.84;4878338;29;114645;-87
2022/04/25 05:24:15;;;;;;;12.50;10.60;;;11.20;94.10;;;11.69;63.18;97858.59;4879957;29;124839;-87
2022/04/25 05:30:25;;;;;;;11.17;9.10;;;11.20;94.40;;;11.87;63.76;97871.09;4862976;29;115792;-84
2022/04/25 05:33:10;;;;;;;10.53;8.60;;;11.30;94.60;;;12.05;64.02;97870.88;4859490;29;123747;-85
2022/04/25 05:36:33;;;;;;;9.87;8.50;;;12.60;95.40;;;12.23;63.76;97871.47;4858639;28;122766;-87
2022/04/25 05:39:19;;;;;;;12.00;10.07;;;11.40;95.00;;;12.33;63.32;97866.28;4857768;29;114034;-86
2022/04/25 05:41:46;;;;;;;9.20;8.10;;;12.70;95.40;;;12.44;63.65;97879.66;4860724;29;113755;-84
2022/04/25 05:44:14;;;;;;;8.33;7.43;;;11.70;95.00;;;12.57;63.54;97878.47;4860026;29;124201;-84
2022/04/25 05:46:42;;;;;;;8.43;7.63;;;11.70;95.10;;;12.71;63.47;97875.38;4865003;29;124259;-82
2022/04/25 05:52:12;;;;;;;8.40;7.50;;;11.90;95.00;;;12.95;63.28;97877.25;4857783;29;114507;-81
2022/04/25 05:54:39;;;;;;;12.10;10.83;;;12.10;95.10;;;12.99;62.76;97878.19;4853015;29;123635;-84
2022/04/25 05:57:06;;;;;;;11.90;10.70;;;12.10;94.80;;;13.02;62.52;97881.03;4853830;29;123003;-84
2022/04/25 05:59:33;;;;;;;9.97;8.93;;;12.20;94.70;;;13.09;62.46;97879.66;4853376;29;114381;-86
2022/04/25 06:02:20;;;;;;;9.70;8.70;;;12.30;94.70;;;13.22;62.60;97884.81;4854822;29;113949;-84
2022/04/25 06:04:49;;;;;;;9.00;8.10;;;12.40;94.70;;;13.33;62.51;97879.59;4857001;28;124197;-85
2022/04/25 06:07:15;;;;;;;9.63;8.07;;;12.40;94.70;;;13.42;62.01;97887.75;4837834;28;122838;-82
2022/04/25 06:09:42;;;;;;;8.40;7.53;;;12.50;94.60;;;13.53;62.13;97888.84;4894958;28;113574;-84
2022/04/25 06:12:09;;;;;;;8.70;7.53;;;12.60;94.60;;;13.65;61.98;97880.47;4894805;28;113970;-81
2022/04/25 06:14:36;;;;;;;8.33;7.20;;;12.70;94.60;;;13.79;61.69;97884.81;4889019;28;124449;-84
2022/04/25 06:17:02;;;;;;;8.10;7.30;;;12.80;94.60;;;13.90;61.32;97883.09;4891598;28;123716;-85
2022/04/25 06:19:29;;;;;;;9.63;8.47;;;12.90;94.50;;;13.94;61.19;97886.75;4892025;28;114415;-86
2022/04/25 06:21:55;;;;;;;10.17;9.07;;;13.00;94.20;;;13.93;60.84;97874.84;4891150;28;114132;-85
2022/04/25 06:24:22;;;;;;;9.63;8.63;;;13.00;94.00;;;13.95;60.57;97868.16;4889570;28;124059;-82
2022/04/25 06:27:09;;;;;;;9.07;7.97;;;13.10;93.80;;;13.97;60.64;97880.53;4889923;28;123900;-85
2022/04/25 06:29:56;;;;;;;10.30;9.20;;;13.20;93.70;;;14.01;60.21;97877.81;4892442;28;114985;-85
2022/04/25 06:32:25;;;;;;;10.20;9.10;;;13.20;93.50;;;14.06;60.05;97885.91;4862541;28;113502;-86
2022/04/25 06:35:12;;;;;;;9.77;8.77;;;13.20;93.50;;;14.13;59.88;97888.84;4894133;28;124118;-84
2022/04/25 06:37:57;;;;;;;9.13;8.17;;;14.30;93.80;;;14.21;59.92;97893.44;4894697;28;123929;-85
2022/04/25 06:40:23;;;;;;;8.30;7.20;;;13.40;93.40;;;14.28;59.81;97890.00;4890504;28;114688;-83
2022/04/25 06:42:53;;;;;;;9.90;8.80;;;13.40;93.30;;;14.33;59.46;97889.75;4893871;28;114246;-85
2022/04/25 06:45:20;;;;;;;8.60;7.67;;;13.50;93.20;;;14.37;59.55;97898.94;4894643;28;123474;-84
2022/04/25 06:47:47;;;;;;;11.60;8.90;;;13.50;93.10;;;14.47;59.38;97892.84;4893245;28;124141;-86
2022/04/25 06:50:14;;;;;;;9.70;8.70;;;13.60;93.10;;;14.56;59.10;97896.28;4894409;28;114091;-85
2022/04/25 06:52:42;;;;;;;11.77;10.47;;;13.70;93.00;;;14.63;58.69;97892.06;4894129;28;113037;-85
2022/04/25 06:55:11;;;;;;;12.80;11.43;;;13.80;92.70;;;14.67;58.62;97895.72;4895271;28;123272;-85
2022/04/25 06:57:38;;;;;;;12.77;11.13;;;13.80;92.60;;;14.69;58.36;97893.38;4879371;28;123508;-85
2022/04/25 07:00:11;;;;;;;12.60;9.90;;;13.90;92.40;;;14.68;58.02;97897.34;4895109;28;114418;-84
2022/04/25 07:02:38;;;;;;;11.13;9.70;;;13.90;92.20;;;14.68;58.16;97894.56;4897373;28;114090;-86
2022/04/25 07:05:07;;;;;;;10.67;9.20;;;13.90;92.10;;;14.67;57.95;97895.72;4898468;28;124190;-83
2022/04/25 07:07:34;;;;;;;9.87;8.87;;;14.00;92.10;;;14.69;57.81;97893.38;4895396;28;123862;-90
2022/04/25 07:10:00;;;;;;;8.17;7.37;;;14.00;91.90;;;14.68;57.77;97892.59;4890845;28;112830;-89
2022/04/25 07:12:27;;;;;;;7.00;6.30;;;14.30;92.00;;;14.70;57.96;97898.59;4906296;28;116021;-91
2022/04/25 07:14:54;;;;;;;9.80;8.63;;;14.00;91.70;;;14.73;57.56;97895.09;4914743;28;123866;-90
2022/04/25 07:17:21;;;;;;;11.27;10.00;;;14.00;91.70;;;14.73;57.36;97899.84;4915129;28;122222;-89
2022/04/25 07:19:47;;;;;;;10.37;9.30;;;14.00;91.50;;;14.70;57.32;97895.81;4911598;28;113745;-89
2022/04/25 07:30:58;;;;;;;10.87;9.50;;;14.10;91.20;;;14.89;56.55;97894.25;4912505;28;114867;-90
2022/04/25 07:33:26;;;;;;;13.80;10.67;;;14.20;91.20;;;14.98;56.21;97892.84;4907877;28;114735;-90
2022/04/25 07:35:54;;;;;;;10.93;9.87;;;14.20;90.90;;;15.02;55.87;97902.09;4906993;28;123169;-90
2022/04/25 07:38:21;;;;;;;11.83;9.47;;;14.30;90.70;;;15.08;55.88;97904.59;4913098;28;124681;-92
2022/04/25 07:40:49;;;;;;;13.20;10.10;;;14.40;90.70;;;15.13;55.59;97901.53;4911042;28;112141;-92
2022/04/25 07:43:16;;;;;;;11.83;8.80;;;14.40;90.50;;;15.22;55.64;97904.91;4905837;28;113539;-91
2022/04/25 07:45:44;;;;;;;8.33;7.47;;;14.50;90.50;;;15.33;55.48;97900.34;4910933;28;122226;-94
2022/04/25 07:48:12;;;;;;;10.40;9.20;;;14.60;90.50;;;15.44;55.04;97906.16;4913088;28;123467;-92
2022/04/25 07:51:01;;;;;;;12.40;10.30;;;14.70;90.30;;;15.45;54.85;97905.78;4909710;28;113967;-93
2022/04/25 07:54:26;;;;;;;11.13;9.47;;;14.80;90.00;;;15.43;54.38;97905.34;4916887;28;114296;-93
2022/04/25 07:57:51;;;;;;;8.33;7.50;;;14.80;89.60;;;15.45;54.58;97907.78;4902952;28;125018;-93
2022/04/25 08:04:01;;;;;;;9.60;7.80;;;14.90;88.80;;;15.49;54.26;97905.06;4899457;28;116261;-94
2022/04/25 08:06:28;;;;;;;8.03;7.20;;;14.90;88.70;;;15.52;54.03;97907.09;4892152;28;114500;-93
2022/04/25 08:09:15;;;;;;;7.23;6.47;;;15.00;88.50;;;15.53;54.02;97908.69;4894834;28;124101;-94
2022/04/25 08:21:54;;;;;;;9.63;8.63;;;14.90;87.30;;;15.42;53.18;97906.53;4899741;28;125179;-93
2022/04/25 08:28:04;;;;;;;8.80;7.50;;;14.90;86.60;;;15.40;53.42;97919.19;4903468;28;115262;-80
2022/04/25 08:30:32;;;;;;;9.53;8.53;;;14.90;86.90;;;15.44;53.29;97918.06;4900673;28;113562;-93
2022/04/25 08:33:01;;;;;;;9.27;8.00;;;14.90;86.80;;;15.45;53.00;97927.25;4896967;28;124373;-84
2022/04/25 08:39:09;;;;;;;8.50;7.53;;;14.90;86.60;;;15.40;52.71;97931.13;4901730;28;115474;-93
2022/04/25 08:41:45;;;;;;;7.90;7.10;;;14.90;86.20;;;15.40;52.98;97933.91;4904225;28;113506;-91
2022/04/25 08:44:54;;;;;;;7.83;7.13;;;14.90;86.20;;;15.39;52.89;97940.66;4917472;28;124467;-82
2022/04/25 08:47:28;;;;;;;7.60;6.57;;;15.00;86.00;;;15.42;52.81;97941.88;4924415;28;124497;-85
2022/04/25 08:53:56;;;;;;;9.83;7.83;;;14.90;86.30;;;15.45;52.94;97949.53;4941109;28;114861;-93
2022/04/25 08:56:42;;;;;;;7.43;6.73;;;14.90;86.20;;;15.49;53.01;97952.38;4936057;28;123965;-93
2022/04/25 09:02:50;;;;;;;9.33;8.37;;;15.00;86.40;;;15.56;53.15;97955.31;4916395;28;115749;-83
2022/04/25 09:09:56;;;;;;;11.40;9.27;;;15.10;86.20;;;15.56;52.78;97961.69;4920044;28;125067;-93
2022/04/25 09:19:47;;;;;;;8.03;7.23;;;15.10;85.70;;;15.66;52.61;97963.06;4921860;28;114477;-92
2022/04/25 09:26:16;;;;;;;8.70;7.30;;;15.20;85.60;;;15.73;52.44;97979.97;4918524;28;125181;-94
2022/04/25 09:28:53;;;;;;;7.37;6.67;;;15.20;85.40;;;15.79;52.08;97978.47;4913215;28;114104;-93
2022/04/25 09:32:00;;;;;;;8.37;7.37;;;15.30;85.40;;;15.81;52.24;97980.91;4913880;28;114033;-93
2022/04/25 09:40:59;;;;;;;7.50;6.80;;;15.40;85.10;;;15.88;51.87;97976.28;4921938;28;115332;-79
2022/04/25 09:43:31;;;;;;;11.60;9.53;;;15.30;84.70;;;15.88;51.23;97969.91;4917152;28;114733;-92
2022/04/25 09:46:07;;;;;;;9.80;8.80;;;15.30;84.20;;;15.88;51.48;97972.72;4914154;28;123248;-93
2022/04/25 09:49:31;;;;;;;9.73;7.63;;;15.40;84.30;;;15.93;51.54;97972.38;4913734;28;124530;-91
2022/04/25 09:52:55;;;;;;;10.27;8.60;;;15.40;84.40;;;16.04;51.29;97978.16;4905561;28;113590;-91
2022/04/25 09:55:29;;;;;;;13.37;9.90;;;15.50;84.30;;;16.08;51.17;97971.50;4885624;28;114632;-92
2022/04/25 09:57:56;;;;;;;11.37;9.43;;;15.50;84.10;;;16.16;50.80;97972.44;4882573;28;123460;-91
2022/04/25 10:00:44;;;;;;;13.57;11.70;;;15.60;84.10;;;16.19;50.12;97968.91;4900039;28;123469;-91
2022/04/25 10:03:12;;;;;;;14.10;11.90;;;15.60;82.80;;;16.15;50.09;97962.47;4819133;29;113788;-92
2022/04/25 10:06:18;;;;;;;10.33;9.23;;;15.60;82.60;;;16.14;50.42;97966.41;4829337;29;113758;-92
2022/04/25 10:17:05;;;;;;;9.93;9.00;;;15.80;83.30;;;16.27;50.37;97961.47;4854641;29;115438;-92
2022/04/25 10:19:31;;;;;;;10.30;8.13;;;15.80;82.80;;;16.30;50.54;97963.53;4856092;29;113899;-92
2022/04/25 10:21:59;;;;;;;8.83;7.60;;;15.80;82.80;;;16.32;50.33;97961.97;4848798;28;124875;-91
2022/04/25 10:24:25;;;;;;;7.73;6.93;;;15.80;82.70;;;16.35;50.44;97961.22;4838206;29;124362;-93
2022/04/25 10:26:53;;;;;;;8.87;7.97;;;15.80;82.70;;;16.42;50.21;97962.56;4843318;29;113946;-93
2022/04/25 10:29:29;;;;;;;12.80;9.10;;;15.90;82.70;;;16.45;49.87;97970.16;4843154;29;114034;-92
2022/04/25 10:31:59;;;;;;;8.70;7.10;;;15.90;82.20;;;16.48;50.08;97958.25;4837860;29;122894;-93
2022/04/25 10:35:11;;;;;;;7.10;6.40;;;15.90;82.40;;;16.55;49.99;97969.56;4833054;29;122972;-92
2022/04/25 10:37:44;;;;;;;7.20;6.30;;;16.00;82.50;;;16.64;49.82;97969.28;4830535;29;114450;-92
2022/04/25 10:44:13;;;;;;;5.70;5.20;;;16.20;82.40;;;16.80;49.92;97958.81;4908934;28;124028;-93
2022/04/25 10:47:20;;;;;;;6.10;4.93;;;16.20;82.30;;;16.88;49.78;97962.53;4895536;28;123957;-92
2022/04/25 10:50:26;;;;;;;8.67;6.27;;;16.30;82.40;;;16.94;49.55;97969.41;4902310;28;113610;-94
2022/04/25 10:53:13;;;;;;;8.70;7.90;;;16.30;82.00;;;17.00;49.33;97962.31;4906002;28;113808;-94
2022/04/25 10:56:07;;;;;;;8.40;7.60;;;16.40;81.60;;;17.03;49.28;97961.53;4903355;28;122442;-92
2022/04/25 10:59:30;;;;;;;7.70;7.00;;;16.40;81.40;;;17.07;48.73;97972.78;4896256;28;122982;-92
2022/04/25 11:01:58;;;;;;;8.67;7.77;;;16.50;81.10;;;17.07;48.58;97962.41;4896204;28;115368;-91
2022/04/25 11:04:26;;;;;;;7.47;6.77;;;16.50;80.70;;;17.09;48.52;97962.06;4895009;28;114141;-91
2022/04/25 11:07:25;;;;;;;10.07;8.97;;;16.50;80.70;;;17.09;48.30;97974.03;4895911;28;124037;-93
2022/04/25 11:10:42;;;;;;;9.70;8.33;;;16.60;79.90;;;17.05;48.21;97977.94;4896736;28;123395;-92
2022/04/25 11:13:09;;;;;;;10.50;8.97;;;16.50;79.60;;;17.09;48.10;97974.03;4879950;28;113245;-91
2022/04/25 11:15:47;;;;;;;10.70;8.90;;;16.60;79.40;;;17.12;47.69;97981.63;4896683;28;113569;-92
2022/04/25 11:18:34;;;;;;;8.50;7.60;;;16.60;79.90;;;17.17;47.86;97984.09;4877667;28;123924;-91
2022/04/25 11:21:05;;;;;;;8.47;7.67;;;16.60;79.30;;;17.20;47.76;97983.34;4896582;28;122623;-90
2022/04/25 11:23:50;;;;;;;7.33;6.57;;;16.70;79.20;;;17.25;47.68;97982.22;4895425;28;114517;-91
2022/04/25 11:27:16;;;;;;;6.90;6.20;;;16.70;79.00;;;17.27;47.47;97987.41;4893620;28;113136;-90
2022/04/25 11:30:13;;;;;;;8.90;8.07;;;16.80;78.80;;;17.25;46.92;97989.78;4894731;28;124276;-92
2022/04/25 11:32:42;;;;;;;8.60;6.60;;;16.80;77.50;;;17.26;46.94;97997.00;4900913;28;123879;-92
2022/04/25 11:35:11;;;;;;;7.70;6.90;;;16.80;77.90;;;17.26;46.85;97989.41;4901484;28;113472;-92
2022/04/25 11:37:37;;;;;;;6.90;6.20;;;18.10;79.00;;;17.28;46.96;98000.22;4901764;28;114313;-92
2022/04/25 11:40:07;;;;;;;7.40;6.20;;;16.80;77.70;;;17.29;46.92;97996.22;4897986;28;124114;-92
2022/04/25 11:42:36;;;;;;;7.30;6.60;;;16.80;77.60;;;17.26;46.85;97992.19;4900935;28;123061;-91
2022/04/25 11:45:05;;;;;;;7.20;6.50;;;16.80;77.50;;;17.25;46.96;97996.19;4897331;28;114573;-93
2022/04/25 11:47:32;;;;;;;5.60;5.00;;;16.80;77.60;;;17.27;46.79;98004.16;4896777;28;114222;-92
2022/04/25 11:50:10;;;;;;;7.10;5.80;;;16.80;77.60;;;17.27;46.83;98009.75;4895672;28;124544;-92
2022/04/25 11:52:51;;;;;;;6.43;5.83;;;16.80;77.70;;;17.22;46.85;98010.88;4896844;28;122534;-91
2022/04/25 11:55:32;;;;;;;5.93;5.43;;;16.80;77.60;;;17.16;47.13;98013.19;4872863;28;114314;-91
2022/04/25 11:57:59;;;;;;;7.57;6.53;;;16.70;77.50;;;17.12;47.24;98012.34;4855047;28;114195;-90
2022/04/25 12:00:29;;;;;;;6.80;6.10;;;16.70;77.70;;;17.04;47.57;98021.78;4874895;28;123268;-91
2022/04/25 12:02:56;;;;;;;8.53;7.43;;;16.60;77.90;;;16.97;48.18;98028.03;4858232;28;123606;-92
2022/04/25 12:05:31;;;;;;;8.00;7.20;;;16.60;78.50;;;16.86;48.64;98045.78;4878741;28;113669;-92
2022/04/25 12:16:50;;;;;;;7.37;6.60;;;16.10;80.60;;;16.27;50.83;98037.53;4873517;28;114783;-93
2022/04/25 12:19:35;;;;;;;7.70;6.90;;;16.00;81.10;;;16.22;50.99;98048.19;4885217;28;113434;-93
2022/04/25 12:22:04;;;;;;;7.67;6.87;;;15.90;81.60;;;16.18;51.24;98044.53;4885599;28;123674;-93
2022/04/25 12:24:32;;;;;;;6.83;6.23;;;15.80;81.90;;;16.17;51.35;98042.91;4867342;28;123532;-93
2022/04/25 12:27:11;;;;;;;6.50;5.53;;;15.80;82.30;;;16.17;51.54;98040.91;4900660;28;113662;-92
2022/04/25 12:30:07;;;;;;;5.50;5.00;;;15.80;82.60;;;16.17;51.48;98043.72;4907514;28;112860;-92
2022/04/25 12:36:25;;;;;;;5.20;4.70;;;15.80;83.40;;;16.23;52.10;98052.59;4893888;28;124811;-92
2022/04/25 12:42:54;;;;;;;7.90;7.10;;;15.80;84.10;;;16.18;52.48;98056.47;4912166;28;114496;-93
2022/04/25 12:45:49;;;;;;;7.53;6.20;;;15.70;84.10;;;16.18;52.55;98056.47;4882459;28;123671;-93
2022/04/25 12:48:17;;;;;;;6.40;5.80;;;15.70;84.30;;;16.21;52.50;98054.94;4897106;28;124237;-93
2022/04/25 12:50:45;;;;;;;7.20;6.50;;;15.70;85.00;;;16.24;52.40;98065.34;4892183;28;114639;-93
2022/04/25 12:53:42;;;;;;;6.50;5.77;;;15.70;84.30;;;16.26;52.21;98055.44;4892522;28;114566;-93
2022/04/25 12:56:51;;;;;;;6.53;5.90;;;15.80;84.20;;;16.26;52.03;98058.25;4900734;28;124368;-92
2022/04/25 12:59:37;;;;;;;6.47;5.87;;;15.80;84.10;;;16.28;51.89;98043.91;4902759;28;123269;-93
2022/04/25 13:02:12;;;;;;;5.60;5.10;;;15.80;84.00;;;16.31;52.02;98049.56;4895494;28;112215;-93
2022/04/25 13:05:07;;;;;;;6.30;5.37;;;15.80;84.00;;;16.33;51.91;98052.81;4905870;28;113438;-92
2022/04/25 13:07:46;;;;;;;6.13;5.50;;;15.90;84.00;;;16.38;51.62;98048.09;4908547;28;123779;-92
2022/04/25 13:10:19;;;;;;;7.33;6.63;;;15.90;84.00;;;16.43;51.74;98054.16;4921063;28;123312;-93
2022/04/25 13:12:50;;;;;;;7.13;6.20;;;15.90;84.10;;;16.48;51.97;98050.28;4899468;28;113131;-93
2022/04/25 13:15:23;;;;;;;10.30;8.37;;;15.90;84.20;;;16.49;51.60;98049.09;4897498;28;111990;-91
2022/04/25 13:17:51;;;;;;;12.80;8.60;;;15.90;83.90;;;16.48;51.46;98045.50;4892964;28;123959;-93
2022/04/25 13:20:23;;;;;;;8.73;7.40;;;15.90;83.40;;;16.47;51.11;98045.88;4899175;28;123376;-91
2022/04/25 13:22:50;;;;;;;7.40;6.70;;;15.90;83.20;;;16.50;51.21;98047.94;4891118;28;112092;-92
2022/04/25 13:25:35;;;;;;;6.80;6.10;;;15.90;83.30;;;16.54;51.20;98046.00;4903124;28;114781;-91
2022/04/25 13:28:02;;;;;;;6.80;6.20;;;16.00;83.40;;;16.62;51.50;98046.94;4901335;28;124112;-92
2022/04/25 13:31:07;;;;;;;8.83;6.70;;;16.10;83.50;;;16.63;51.22;98043.78;4899518;28;123557;-93
2022/04/25 13:34:11;;;;;;;8.20;7.33;;;16.10;83.50;;;16.65;51.19;98051.78;4914463;28;114170;-91
2022/04/25 13:36:39;;;;;;;6.33;5.73;;;16.10;83.40;;;16.75;51.33;98040.81;4913725;28;113994;-92
2022/04/25 13:39:44;;;;;;;6.77;6.00;;;16.20;83.60;;;16.88;51.06;98044.25;4900500;28;123872;-91
2022/04/25 13:42:32;;;;;;;6.97;6.07;;;16.30;83.80;;;16.97;51.14;98042.00;4900585;28;124508;-93
2022/04/25 13:44:58;;;;;;;6.33;5.73;;;16.40;84.00;;;17.12;51.26;98039.44;4897042;28;114567;-93
2022/04/25 13:47:29;;;;;;;7.70;6.93;;;16.50;84.10;;;17.30;51.13;98031.34;4905733;28;113570;-93
2022/04/25 13:49:56;;;;;;;6.40;5.80;;;16.60;84.10;;;17.46;50.77;98040.34;4909854;28;123188;-93
2022/04/25 13:52:23;;;;;;;6.23;5.60;;;16.80;84.20;;;17.63;50.61;98022.25;4896789;28;123675;-91
2022/04/25 13:54:50;;;;;;;6.13;5.53;;;16.90;84.20;;;17.77;50.53;98035.59;4898254;28;114519;-91
2022/04/25 13:57:37;;;;;;;8.43;7.10;;;17.00;84.10;;;17.86;50.32;98014.56;4888973;28;112892;-92
2022/04/25 14:00:06;;;;;;;11.03;9.90;;;17.20;84.00;;;17.89;50.27;98029.78;4894588;28;124387;-92
2022/04/25 14:05:23;;;;;;;13.17;9.50;;;17.20;83.30;;;17.77;50.33;98041.97;4898660;28;114795;-93
2022/04/25 14:07:50;;;;;;;9.50;8.50;;;17.20;83.10;;;17.74;50.27;98037.16;4896248;28;112758;-92
2022/04/25 14:10:37;;;;;;;8.60;7.70;;;17.20;83.00;;;17.72;50.31;98036.72;4893313;28;124126;-92
2022/04/25 14:13:11;;;;;;;10.37;8.17;;;17.30;83.00;;;17.75;50.55;98046.34;4893855;28;122656;-92
2022/04/25 14:15:42;;;;;;;8.47;7.57;;;17.30;83.10;;;17.77;50.60;98038.38;4895190;28;113136;-92
2022/04/25 14:18:13;;;;;;;9.10;7.87;;;17.30;83.10;;;17.80;50.55;98037.66;4894395;28;113295;-92
2022/04/25 14:20:41;;;;;;;13.53;8.77;;;17.30;83.00;;;17.78;50.61;98031.59;4894770;28;123493;-92
2022/04/25 14:23:09;;;;;;;10.10;7.77;;;17.30;83.20;;;17.75;50.85;98035.16;4894735;28;123988;-93
2022/04/25 14:25:37;;;;;;;7.73;6.70;;;17.30;83.40;;;17.77;50.99;98041.97;4871710;28;112699;-93
2022/04/25 14:28:24;;;;;;;8.37;7.50;;;17.30;83.60;;;17.77;50.85;98033.59;4887011;28;113153;-92
2022/04/25 14:30:52;;;;;;;6.40;5.50;;;17.30;83.60;;;17.75;51.04;98029.56;4895973;28;123543;-92
2022/04/25 14:33:19;;;;;;;5.37;4.87;;;17.30;83.70;;;17.76;51.05;98031.19;4895805;28;123414;-93
2022/04/25 14:36:24;;;;;;;8.50;5.77;;;17.30;83.80;;;17.73;51.16;98031.94;4877261;28;114956;-92
2022/04/25 14:39:11;;;;;;;5.40;4.83;;;17.30;83.80;;;17.72;51.17;98031.13;4885323;28;114320;-92
2022/04/25 14:41:39;;;;;;;7.90;5.27;;;17.30;83.90;;;17.74;51.22;98025.97;4879086;28;124605;-92
2022/04/25 14:44:45;;;;;;;7.93;5.33;;;17.30;84.00;;;17.75;51.28;98026.78;4886481;28;123392;-91
2022/04/25 14:47:12;;;;;;;5.83;4.43;;;17.30;84.00;;;17.82;51.04;98024.13;4896395;28;114113;-94
2022/04/25 14:56:07;;;;;;;4.97;4.50;;;17.40;83.40;;;17.85;50.76;98023.34;4888748;28;123923;-92
2022/04/25 15:02:15;;;;;;;7.33;3.43;;;17.50;83.60;;;18.15;50.42;98026.09;4899276;28;114477;-93
2022/04/25 15:04:44;;;;;;;4.87;4.30;;;17.50;83.60;;;18.26;50.03;98035.41;4894947;28;123796;-92
2022/04/25 15:07:11;;;;;;;4.47;4.07;;;17.70;83.20;;;18.32;49.82;98036.69;4898184;28;124065;-92
2022/04/25 15:09:39;;;;;;;5.83;4.50;;;17.80;82.80;;;18.32;49.36;98041.47;4898164;28;113638;-91
2022/04/25 15:12:06;;;;;;;6.67;5.20;;;17.80;82.20;;;18.28;49.31;98035.84;4895463;28;113308;-91
2022/04/25 15:15:12;;;;;;;5.53;5.03;;;17.80;81.70;;;18.21;49.22;98032.16;4898029;28;123682;-91
2022/04/25 15:17:57;;;;;;;4.30;3.90;;;17.70;81.30;;;18.27;49.27;98025.84;4881913;28;123147;-92
2022/04/25 15:20:24;;;;;;;6.80;4.10;;;17.80;81.50;;;18.34;48.94;98027.91;4895457;28;114448;-93
2022/04/25 15:35:02;;;;;;;3.37;3.07;;;18.00;80.80;;;18.44;48.25;98035.63;4895511;28;115221;-90
2022/04/25 15:37:37;;;;;;;3.00;2.70;;;18.00;80.20;;;18.41;48.25;98038.38;4894856;28;124500;-91
2022/04/25 15:40:05;;;;;;;2.47;2.27;;;18.00;79.90;;;18.39;48.15;98038.75;4877601;28;123530;-91
2022/04/25 15:42:32;;;;;;;3.27;2.87;;;18.00;79.70;;;18.38;47.47;98041.97;4891630;28;114514;-90
2022/04/25 15:44:59;;;;;;;2.83;2.63;;;18.00;79.00;;;18.30;47.56;98027.09;4892178;28;113961;-91
2022/04/25 15:47:25;;;;;;;2.50;2.30;;;17.90;78.70;;;18.28;47.70;98035.03;4907155;28;123468;-93
2022/04/25 15:49:52;;;;;;;2.40;2.20;;;17.90;78.80;;;18.29;47.64;98036.66;4893434;28;123065;-90
2022/04/25 15:52:18;;;;;;;2.77;2.57;;;17.90;78.80;;;18.30;47.48;98043.88;4892731;28;114789;-91
2022/04/25 15:57:43;;;;;;;2.73;2.53;;;17.90;78.70;;;18.27;47.60;98050.22;4894513;28;124817;-92
2022/04/25 16:00:14;;;;;;;2.70;2.50;;;17.90;78.80;;;18.24;47.39;98050.97;4895078;28;123569;-92
2022/04/25 16:02:46;;;;;;;2.30;2.10;;;17.80;78.60;;;18.20;47.76;98050.94;4895105;28;113530;-92
2022/04/25 16:05:14;;;;;;;2.27;2.07;;;17.80;78.60;;;18.16;47.66;98057.66;4894144;28;113994;-91
2022/04/25 16:07:41;;;;;;;2.40;2.20;;;17.80;78.60;;;18.15;47.79;98053.28;4894052;28;123933;-90
2022/04/25 16:10:08;;;;;;;1.83;1.73;;;17.70;78.60;;;18.10;47.71;98068.38;4893200;28;124634;-93
2022/04/25 16:12:35;;;;;;;2.60;2.40;;;17.70;78.60;;;18.06;47.63;98068.34;4894531;28;113883;-91
2022/04/25 16:15:05;;;;;;;3.20;2.90;;;17.60;78.50;;;18.00;47.63;98072.66;4893872;28;114441;-91
2022/04/25 16:17:34;;;;;;;3.23;2.50;;;17.60;78.30;;;17.94;47.74;98065.78;4890825;28;123254;-91
2022/04/25 16:20:03;;;;;;;3.47;2.53;;;17.60;78.40;;;17.91;47.64;98066.53;4874770;28;123803;-91
2022/04/25 16:22:32;;;;;;;2.53;2.33;;;17.50;78.50;;;17.91;47.89;98074.94;4891187;28;115330;-92
2022/04/25 16:25:00;;;;;;;2.53;2.30;;;17.50;78.40;;;17.89;47.87;98080.09;4889622;28;113947;-92
2022/04/25 16:27:47;;;;;;;6.53;3.77;;;17.40;78.40;;;17.86;47.90;98080.84;4887705;28;123325;-91
2022/04/25 16:30:14;;;;;;;5.00;3.10;;;17.40;78.20;;;17.77;47.72;98083.09;4887845;28;122962;-92
2022/04/25 16:32:42;;;;;;;4.00;3.40;;;17.30;78.20;;;17.70;47.65;98083.00;4896866;28;114355;-91
2022/04/25 16:35:08;;;;;;;3.30;3.00;;;17.20;78.20;;;17.67;47.74;98090.13;4897754;28;111998;-90
2022/04/25 16:37:35;;;;;;;3.67;3.37;;;17.20;78.30;;;17.64;47.85;98076.94;4875585;28;123613;-91
2022/04/25 16:40:21;;;;;;;2.97;2.77;;;17.20;78.40;;;17.63;47.88;98084.50;4893482;28;123767;-90
2022/04/25 16:42:47;;;;;;;2.90;2.60;;;17.20;78.50;;;17.62;47.87;98090.47;4895086;28;114283;-91
2022/04/25 16:45:14;;;;;;;3.10;2.77;;;17.20;78.50;;;17.58;47.90;98096.00;4897329;28;114306;-92
2022/04/25 16:47:41;;;;;;;3.50;3.20;;;17.10;78.20;;;17.56;47.78;98089.97;4894070;28;124509;-92
2022/04/25 16:50:28;;;;;;;3.23;2.93;;;17.10;78.30;;;17.51;47.84;98087.50;4894768;28;123093;-91
2022/04/25 16:53:15;;;;;;;3.40;3.10;;;17.10;78.40;;;17.49;48.14;98092.69;4895453;28;114122;-91
2022/04/25 16:56:37;;;;;;;2.97;2.67;;;17.00;78.40;;;17.46;48.17;98093.41;4889434;28;113739;-91
2022/04/25 16:59:04;;;;;;;3.33;3.03;;;17.10;78.70;;;17.44;48.28;98093.00;4895333;28;124828;-90
2022/04/25 17:01:32;;;;;;;2.57;2.37;;;17.00;78.90;;;17.49;48.63;98095.47;4896385;28;123918;-91
2022/04/25 17:04:01;;;;;;;3.30;3.00;;;17.00;79.10;;;17.57;48.44;98088.81;4884352;28;114528;-91
2022/04/25 17:06:27;;;;;;;2.63;2.43;;;17.00;79.20;;;17.67;48.18;98090.94;4885692;28;112045;-91
2022/04/25 17:09:14;;;;;;;2.70;2.50;;;17.10;79.30;;;17.78;48.02;98090.28;4878475;28;123163;-90
2022/04/25 17:11:47;;;;;;;3.17;2.87;;;17.20;79.30;;;17.88;47.73;98086.88;4894001;28;123618;-91
2022/04/25 17:14:15;;;;;;;3.33;2.80;;;17.20;79.10;;;17.93;47.65;98091.34;4893681;28;115719;-90
2022/04/25 17:16:42;;;;;;;2.87;2.67;;;17.30;79.00;;;17.95;47.62;98084.19;4893128;28;114164;-91